sensor_id;sensor_type;location;lat;lon;timestamp;pressure;altitude;pressure_sealevel;temperature;humidity
76484;BME280;65318;-33.924;18.406;2023-06-10T00:01:47;99690.46;;;17.84;69.69
76484;BME280;65318;-33.924;18.406;2023-06-10T00:04:13;99687.10;;;18.05;69.30
76484;BME280;65318;-33.924;18.406;2023-06-10T00:06:38;99687.24;;;18.24;68.56
76484;BME280;65318;-33.924;18.406;2023-06-10T00:09:04;99689.44;;;18.28;68.51
76484;BME280;65318;-33.924;18.406;2023-06-10T00:11:30;99686.94;;;17.90;69.37
76484;BME280;65318;-33.924;18.406;2023-06-10T00:13:55;99683.99;;;18.56;67.71
76484;BME280;65318;-33.924;18.406;2023-06-10T00:16:21;99683.32;;;17.91;68.92
76484;BME280;65318;-33.924;18.406;2023-06-10T00:18:46;99684.61;;;18.46;67.71
76484;BME280;65318;-33.924;18.406;2023-06-10T00:21:11;99684.28;;;18.19;68.21
76484;BME280;65318;-33.924;18.406;2023-06-10T00:23:37;99687.20;;;17.93;68.74
76484;BME280;65318;-33.924;18.406;2023-06-10T00:26:03;99688.25;;;17.85;68.83
76484;BME280;65318;-33.924;18.406;2023-06-10T00:28:28;99681.95;;;17.81;69.02
76484;BME280;65318;-33.924;18.406;2023-06-10T00:30:54;99684.04;;;18.24;67.88
76484;BME280;65318;-33.924;18.406;2023-06-10T00:33:19;99684.95;;;17.92;68.67
76484;BME280;65318;-33.924;18.406;2023-06-10T00:35:45;99682.25;;;18.11;68.13
76484;BME280;65318;-33.924;18.406;2023-06-10T00:38:10;99682.17;;;17.20;69.62
76484;BME280;65318;-33.924;18.406;2023-06-10T00:40:40;99683.57;;;17.58;69.17
76484;BME280;65318;-33.924;18.406;2023-06-10T00:43:01;99688.34;;;17.32;70.06
76484;BME280;65318;-33.924;18.406;2023-06-10T00:45:27;99682.91;;;18.25;67.53
76484;BME280;65318;-33.924;18.406;2023-06-10T00:47:53;99677.48;;;18.05;68.08
76484;BME280;65318;-33.924;18.406;2023-06-10T00:50:18;99678.51;;;17.86;68.39
76484;BME280;65318;-33.924;18.406;2023-06-10T00:52:44;99678.00;;;18.09;67.90
76484;BME280;65318;-33.924;18.406;2023-06-10T00:55:09;99672.27;;;17.44;69.02
76484;BME280;65318;-33.924;18.406;2023-06-10T00:57:35;99671.85;;;17.66;68.62
76484;BME280;65318;-33.924;18.406;2023-06-10T01:00:01;99670.93;;;17.75;69.22
76484;BME280;65318;-33.924;18.406;2023-06-10T01:02:26;99671.96;;;18.28;67.23
76484;BME280;65318;-33.924;18.406;2023-06-10T01:04:51;99670.51;;;17.91;67.90
76484;BME280;65318;-33.924;18.406;2023-06-10T01:07:23;99669.79;;;17.86;67.83
76484;BME280;65318;-33.924;18.406;2023-06-10T01:09:48;99665.59;;;17.86;68.32
76484;BME280;65318;-33.924;18.406;2023-06-10T01:12:13;99663.68;;;17.74;68.13
76484;BME280;65318;-33.924;18.406;2023-06-10T01:14:34;99663.27;;;17.90;68.96
76484;BME280;65318;-33.924;18.406;2023-06-10T01:17:00;99653.64;;;17.67;68.15
76484;BME280;65318;-33.924;18.406;2023-06-10T01:19:24;99649.32;;;18.17;67.14
76484;BME280;65318;-33.924;18.406;2023-06-10T01:21:50;99643.63;;;18.18;67.45
76484;BME280;65318;-33.924;18.406;2023-06-10T01:24:16;99638.81;;;17.83;67.31
76484;BME280;65318;-33.924;18.406;2023-06-10T01:26:41;99637.95;;;18.20;66.67
76484;BME280;65318;-33.924;18.406;2023-06-10T01:29:10;99636.09;;;18.06;67.53
76484;BME280;65318;-33.924;18.406;2023-06-10T01:31:38;99633.58;;;17.70;67.52
76484;BME280;65318;-33.924;18.406;2023-06-10T01:33:58;99635.25;;;18.25;66.97
76484;BME280;65318;-33.924;18.406;2023-06-10T01:36:24;99634.40;;;18.14;67.23
76484;BME280;65318;-33.924;18.406;2023-06-10T01:38:50;99637.36;;;17.27;68.66
76484;BME280;65318;-33.924;18.406;2023-06-10T01:41:16;99636.69;;;17.91;67.43
76484;BME280;65318;-33.924;18.406;2023-06-10T01:43:40;99633.99;;;17.70;67.60
76484;BME280;65318;-33.924;18.406;2023-06-10T01:46:06;99639.58;;;17.14;69.42
76484;BME280;65318;-33.924;18.406;2023-06-10T01:48:32;99637.20;;;17.95;68.19
76484;BME280;65318;-33.924;18.406;2023-06-10T01:50:57;99639.90;;;17.28;68.42
76484;BME280;65318;-33.924;18.406;2023-06-10T01:53:22;99638.71;;;17.64;67.44
76484;BME280;65318;-33.924;18.406;2023-06-10T01:55:48;99637.92;;;17.57;67.45
76484;BME280;65318;-33.924;18.406;2023-06-10T01:58:13;99637.15;;;18.14;66.13
76484;BME280;65318;-33.924;18.406;2023-06-10T02:00:38;99639.04;;;17.51;68.31
76484;BME280;65318;-33.924;18.406;2023-06-10T02:03:04;99639.26;;;17.67;67.22
76484;BME280;65318;-33.924;18.406;2023-06-10T02:05:29;99636.17;;;17.95;66.95
76484;BME280;65318;-33.924;18.406;2023-06-10T02:07:55;99634.14;;;17.78;66.73
76484;BME280;65318;-33.924;18.406;2023-06-10T02:10:21;99633.66;;;17.57;67.25
76484;BME280;65318;-33.924;18.406;2023-06-10T02:12:46;99630.93;;;17.88;66.34
76484;BME280;65318;-33.924;18.406;2023-06-10T02:15:12;99628.54;;;17.96;66.62
76484;BME280;65318;-33.924;18.406;2023-06-10T02:17:37;99624.70;;;17.30;68.01
76484;BME280;65318;-33.924;18.406;2023-06-10T02:20:03;99625.15;;;17.51;66.99
76484;BME280;65318;-33.924;18.406;2023-06-10T02:22:28;99617.55;;;17.63;66.80
76484;BME280;65318;-33.924;18.406;2023-06-10T02:24:54;99613.00;;;17.87;66.78
76484;BME280;65318;-33.924;18.406;2023-06-10T02:27:20;99617.46;;;17.22;68.09
76484;BME280;65318;-33.924;18.406;2023-06-10T02:29:45;99616.91;;;17.79;66.83
76484;BME280;65318;-33.924;18.406;2023-06-10T02:32:11;99616.81;;;17.93;66.62
76484;BME280;65318;-33.924;18.406;2023-06-10T02:34:36;99613.14;;;18.19;65.85
76484;BME280;65318;-33.924;18.406;2023-06-10T02:37:02;99611.65;;;17.80;66.11
76484;BME280;65318;-33.924;18.406;2023-06-10T02:39:28;99611.16;;;17.68;66.65
76484;BME280;65318;-33.924;18.406;2023-06-10T02:41:53;99612.07;;;17.81;66.45
76484;BME280;65318;-33.924;18.406;2023-06-10T02:44:19;99612.05;;;18.47;65.53
76484;BME280;65318;-33.924;18.406;2023-06-10T02:46:44;99608.14;;;18.12;65.72
76484;BME280;65318;-33.924;18.406;2023-06-10T02:49:10;99609.38;;;17.45;66.41
76484;BME280;65318;-33.924;18.406;2023-06-10T02:51:35;99606.41;;;17.23;67.18
76484;BME280;65318;-33.924;18.406;2023-06-10T02:54:00;99599.21;;;17.71;67.06
76484;BME280;65318;-33.924;18.406;2023-06-10T02:56:26;99595.54;;;17.94;66.57
76484;BME280;65318;-33.924;18.406;2023-06-10T02:58:52;99594.96;;;17.18;67.95
76484;BME280;65318;-33.924;18.406;2023-06-10T03:03:44;99594.75;;;17.42;67.55
76484;BME280;65318;-33.924;18.406;2023-06-10T03:06:10;99594.52;;;17.54;66.29
76484;BME280;65318;-33.924;18.406;2023-06-10T03:08:34;99593.97;;;17.51;66.25
76484;BME280;65318;-33.924;18.406;2023-06-10T03:10:59;99589.56;;;16.97;67.05
76484;BME280;65318;-33.924;18.406;2023-06-10T03:13:25;99586.69;;;17.55;66.88
76484;BME280;65318;-33.924;18.406;2023-06-10T03:15:51;99584.84;;;16.85;67.62
76484;BME280;65318;-33.924;18.406;2023-06-10T03:18:16;99581.79;;;17.36;66.14
76484;BME280;65318;-33.924;18.406;2023-06-10T03:20:41;99578.21;;;17.69;66.03
76484;BME280;65318;-33.924;18.406;2023-06-10T03:23:07;99576.11;;;17.64;65.66
76484;BME280;65318;-33.924;18.406;2023-06-10T03:25:32;99576.74;;;17.15;67.24
76484;BME280;65318;-33.924;18.406;2023-06-10T03:27:58;99579.69;;;17.20;67.00
76484;BME280;65318;-33.924;18.406;2023-06-10T03:30:23;99583.14;;;17.81;66.12
76484;BME280;65318;-33.924;18.406;2023-06-10T03:32:49;99588.91;;;17.13;66.75
76484;BME280;65318;-33.924;18.406;2023-06-10T03:35:15;99587.21;;;17.93;65.64
76484;BME280;65318;-33.924;18.406;2023-06-10T03:37:40;99584.32;;;17.06;66.31
76484;BME280;65318;-33.924;18.406;2023-06-10T03:40:07;99581.46;;;17.71;66.16
76484;BME280;65318;-33.924;18.406;2023-06-10T03:42:31;99579.82;;;17.42;65.42
76484;BME280;65318;-33.924;18.406;2023-06-10T03:44:56;99577.72;;;17.92;65.40
76484;BME280;65318;-33.924;18.406;2023-06-10T03:47:22;99577.50;;;17.27;65.81
76484;BME280;65318;-33.924;18.406;2023-06-10T03:49:47;99576.76;;;17.76;64.99
76484;BME280;65318;-33.924;18.406;2023-06-10T03:52:13;99579.15;;;17.30;65.38
76484;BME280;65318;-33.924;18.406;2023-06-10T03:54:39;99582.19;;;17.57;65.82
76484;BME280;65318;-33.924;18.406;2023-06-10T03:57:05;99581.64;;;17.82;65.31
76484;BME280;65318;-33.924;18.406;2023-06-10T03:59:30;99581.43;;;17.01;66.93
76484;BME280;65318;-33.924;18.406;2023-06-10T04:01:55;99581.28;;;17.17;66.04
76484;BME280;65318;-33.924;18.406;2023-06-10T04:04:21;99579.00;;;18.01;65.35
76484;BME280;65318;-33.924;18.406;2023-06-10T04:06:46;99576.91;;;17.05;66.01
76484;BME280;65318;-33.924;18.406;2023-06-10T04:09:12;99575.39;;;17.38;65.92
76484;BME280;65318;-33.924;18.406;2023-06-10T04:11:37;99578.40;;;16.64;67.41
76484;BME280;65318;-33.924;18.406;2023-06-10T04:14:03;99578.28;;;16.90;65.86
76484;BME280;65318;-33.924;18.406;2023-06-10T04:16:29;99574.02;;;17.47;65.84
76484;BME280;65318;-33.924;18.406;2023-06-10T04:18:54;99576.50;;;17.57;65.41
76484;BME280;65318;-33.924;18.406;2023-06-10T04:21:20;99578.81;;;17.29;66.04
76484;BME280;65318;-33.924;18.406;2023-06-10T04:23:45;99581.32;;;17.35;65.13
76484;BME280;65318;-33.924;18.406;2023-06-10T04:26:10;99585.03;;;17.22;66.05
76484;BME280;65318;-33.924;18.406;2023-06-10T04:28:36;99588.08;;;16.48;67.55
76484;BME280;65318;-33.924;18.406;2023-06-10T04:31:01;99585.55;;;17.71;64.85
76484;BME280;65318;-33.924;18.406;2023-06-10T04:33:27;99588.23;;;17.54;65.08
76484;BME280;65318;-33.924;18.406;2023-06-10T04:35:52;99588.83;;;17.87;64.59
76484;BME280;65318;-33.924;18.406;2023-06-10T04:38:18;99587.02;;;17.66;64.51
76484;BME280;65318;-33.924;18.406;2023-06-10T04:40:44;99588.38;;;16.88;65.50
76484;BME280;65318;-33.924;18.406;2023-06-10T04:43:09;99591.86;;;16.82;66.09
76484;BME280;65318;-33.924;18.406;2023-06-10T04:45:34;99595.04;;;17.34;64.94
76484;BME280;65318;-33.924;18.406;2023-06-10T04:48:00;99597.09;;;17.03;65.83
76484;BME280;65318;-33.924;18.406;2023-06-10T04:50:26;99595.47;;;17.01;65.69
76484;BME280;65318;-33.924;18.406;2023-06-10T04:52:51;99592.69;;;17.08;65.49
76484;BME280;65318;-33.924;18.406;2023-06-10T04:57:43;99593.18;;;16.77;65.93
76484;BME280;65318;-33.924;18.406;2023-06-10T05:00:08;99590.32;;;17.46;63.91
76484;BME280;65318;-33.924;18.406;2023-06-10T05:02:33;99592.82;;;17.19;64.87
76484;BME280;65318;-33.924;18.406;2023-06-10T05:04:59;99593.63;;;16.70;65.89
76484;BME280;65318;-33.924;18.406;2023-06-10T05:07:24;99593.00;;;17.35;64.43
76484;BME280;65318;-33.924;18.406;2023-06-10T05:09:50;99591.06;;;17.15;64.72
76484;BME280;65318;-33.924;18.406;2023-06-10T05:12:15;99594.58;;;17.12;64.88
76484;BME280;65318;-33.924;18.406;2023-06-10T05:14:41;99591.27;;;17.39;64.27
76484;BME280;65318;-33.924;18.406;2023-06-10T05:17:06;99591.58;;;17.46;64.10
76484;BME280;65318;-33.924;18.406;2023-06-10T05:19:32;99588.77;;;17.55;63.78
76484;BME280;65318;-33.924;18.406;2023-06-10T05:21:57;99589.05;;;17.19;64.60
76484;BME280;65318;-33.924;18.406;2023-06-10T05:24:22;99592.71;;;16.94;65.15
76484;BME280;65318;-33.924;18.406;2023-06-10T05:26:48;99591.13;;;16.97;65.22
76484;BME280;65318;-33.924;18.406;2023-06-10T05:29:14;99590.08;;;17.17;64.82
76484;BME280;65318;-33.924;18.406;2023-06-10T05:31:39;99593.54;;;17.18;64.52
76484;BME280;65318;-33.924;18.406;2023-06-10T05:34:05;99595.34;;;16.75;64.61
76484;BME280;65318;-33.924;18.406;2023-06-10T05:36:30;99596.39;;;17.86;63.63
76484;BME280;65318;-33.924;18.406;2023-06-10T05:38:56;99603.76;;;17.05;64.74
76484;BME280;65318;-33.924;18.406;2023-06-10T05:41:21;99602.96;;;17.64;63.38
76484;BME280;65318;-33.924;18.406;2023-06-10T05:43:47;99607.93;;;17.00;64.65
76484;BME280;65318;-33.924;18.406;2023-06-10T05:46:12;99605.22;;;17.31;63.80
76484;BME280;65318;-33.924;18.406;2023-06-10T05:48:37;99609.36;;;16.75;64.40
76484;BME280;65318;-33.924;18.406;2023-06-10T05:51:03;99605.78;;;16.31;65.79
76484;BME280;65318;-33.924;18.406;2023-06-10T05:53:29;99608.58;;;16.07;66.54
76484;BME280;65318;-33.924;18.406;2023-06-10T05:55:55;99610.08;;;16.49;65.51
76484;BME280;65318;-33.924;18.406;2023-06-10T05:58:20;99609.21;;;16.90;64.89
76484;BME280;65318;-33.924;18.406;2023-06-10T06:00:46;99608.01;;;16.20;66.23
76484;BME280;65318;-33.924;18.406;2023-06-10T06:03:11;99608.76;;;16.44;66.24
76484;BME280;65318;-33.924;18.406;2023-06-10T06:05:37;99608.46;;;16.58;65.31
76484;BME280;65318;-33.924;18.406;2023-06-10T06:08:02;99606.87;;;16.36;65.63
76484;BME280;65318;-33.924;18.406;2023-06-10T06:10:27;99609.57;;;16.70;64.66
76484;BME280;65318;-33.924;18.406;2023-06-10T06:12:52;99608.59;;;17.33;63.67
76484;BME280;65318;-33.924;18.406;2023-06-10T06:15:18;99611.76;;;17.13;64.23
76484;BME280;65318;-33.924;18.406;2023-06-10T06:17:44;99613.87;;;17.32;64.58
76484;BME280;65318;-33.924;18.406;2023-06-10T06:20:10;99614.06;;;17.12;64.51
76484;BME280;65318;-33.924;18.406;2023-06-10T06:22:35;99613.40;;;17.12;64.55
76484;BME280;65318;-33.924;18.406;2023-06-10T06:25:00;99617.58;;;17.56;64.34
76484;BME280;65318;-33.924;18.406;2023-06-10T06:27:26;99619.51;;;17.64;65.15
76484;BME280;65318;-33.924;18.406;2023-06-10T06:29:52;99618.30;;;17.36;65.12
76484;BME280;65318;-33.924;18.406;2023-06-10T06:32:17;99620.13;;;17.14;65.30
76484;BME280;65318;-33.924;18.406;2023-06-10T06:34:43;99627.82;;;17.07;66.89
76484;BME280;65318;-33.924;18.406;2023-06-10T06:37:08;99629.31;;;17.26;67.28
76484;BME280;65318;-33.924;18.406;2023-06-10T06:39:34;99635.92;;;17.13;68.60
76484;BME280;65318;-33.924;18.406;2023-06-10T06:41:59;99634.74;;;17.61;68.84
76484;BME280;65318;-33.924;18.406;2023-06-10T06:44:25;99633.69;;;17.31;68.76
76484;BME280;65318;-33.924;18.406;2023-06-10T06:46:50;99634.92;;;17.29;69.60
76484;BME280;65318;-33.924;18.406;2023-06-10T06:49:16;99637.90;;;17.52;69.41
76484;BME280;65318;-33.924;18.406;2023-06-10T06:51:41;99638.28;;;17.66;70.03
76484;BME280;65318;-33.924;18.406;2023-06-10T06:54:07;99636.23;;;17.47;70.48
76484;BME280;65318;-33.924;18.406;2023-06-10T06:56:33;99635.88;;;17.60;70.44
76484;BME280;65318;-33.924;18.406;2023-06-10T06:58:58;99635.99;;;17.66;70.18
76484;BME280;65318;-33.924;18.406;2023-06-10T07:01:23;99638.45;;;17.76;70.50
76484;BME280;65318;-33.924;18.406;2023-06-10T07:03:49;99638.76;;;17.97;70.06
76484;BME280;65318;-33.924;18.406;2023-06-10T07:06:21;99642.02;;;17.95;69.77
76484;BME280;65318;-33.924;18.406;2023-06-10T07:08:41;99639.52;;;18.08;70.20
76484;BME280;65318;-33.924;18.406;2023-06-10T07:11:06;99641.19;;;18.42;69.03
76484;BME280;65318;-33.924;18.406;2023-06-10T07:13:31;99639.22;;;18.52;69.04
76484;BME280;65318;-33.924;18.406;2023-06-10T07:15:56;99638.03;;;18.21;69.40
76484;BME280;65318;-33.924;18.406;2023-06-10T07:18:22;99636.43;;;19.53;65.02
76484;BME280;65318;-33.924;18.406;2023-06-10T07:20:48;99643.01;;;18.70;67.17
76484;BME280;65318;-33.924;18.406;2023-06-10T07:23:18;99642.67;;;18.80;69.11
76484;BME280;65318;-33.924;18.406;2023-06-10T07:25:41;99644.13;;;18.95;69.28
76484;BME280;65318;-33.924;18.406;2023-06-10T07:28:04;99643.33;;;18.76;70.42
76484;BME280;65318;-33.924;18.406;2023-06-10T07:30:30;99641.68;;;18.20;71.58
76484;BME280;65318;-33.924;18.406;2023-06-10T07:32:55;99642.73;;;18.27;71.14
76484;BME280;65318;-33.924;18.406;2023-06-10T07:35:21;99645.03;;;18.64;70.47
76484;BME280;65318;-33.924;18.406;2023-06-10T07:37:46;99642.72;;;18.72;70.49
76484;BME280;65318;-33.924;18.406;2023-06-10T07:40:12;99641.38;;;18.48;70.36
76484;BME280;65318;-33.924;18.406;2023-06-10T07:42:37;99643.66;;;18.78;70.28
76484;BME280;65318;-33.924;18.406;2023-06-10T07:45:03;99642.54;;;18.69;69.98
76484;BME280;65318;-33.924;18.406;2023-06-10T07:47:28;99643.96;;;18.77;70.46
76484;BME280;65318;-33.924;18.406;2023-06-10T07:49:54;99646.37;;;18.84;70.28
76484;BME280;65318;-33.924;18.406;2023-06-10T07:52:19;99647.82;;;18.76;69.92
76484;BME280;65318;-33.924;18.406;2023-06-10T07:54:45;99655.89;;;19.07;69.64
76484;BME280;65318;-33.924;18.406;2023-06-10T07:57:10;99658.19;;;18.88;69.63
76484;BME280;65318;-33.924;18.406;2023-06-10T07:59:36;99659.42;;;18.96;69.58
76484;BME280;65318;-33.924;18.406;2023-06-10T08:02:01;99657.31;;;19.26;69.43
76484;BME280;65318;-33.924;18.406;2023-06-10T08:04:26;99661.21;;;19.33;68.82
76484;BME280;65318;-33.924;18.406;2023-06-10T08:06:52;99662.76;;;19.52;69.01
76484;BME280;65318;-33.924;18.406;2023-06-10T08:09:17;99665.06;;;19.15;69.34
76484;BME280;65318;-33.924;18.406;2023-06-10T08:11:43;99663.81;;;19.44;68.58
76484;BME280;65318;-33.924;18.406;2023-06-10T08:14:08;99663.37;;;19.19;69.24
76484;BME280;65318;-33.924;18.406;2023-06-10T08:16:33;99662.72;;;19.29;68.93
76484;BME280;65318;-33.924;18.406;2023-06-10T08:18:59;99666.87;;;19.22;69.35
76484;BME280;65318;-33.924;18.406;2023-06-10T08:21:24;99664.13;;;19.36;69.00
76484;BME280;65318;-33.924;18.406;2023-06-10T08:23:53;99661.23;;;19.37;69.08
76484;BME280;65318;-33.924;18.406;2023-06-10T08:26:15;99663.04;;;18.73;68.01
76484;BME280;65318;-33.924;18.406;2023-06-10T08:28:41;99658.62;;;19.58;63.79
76484;BME280;65318;-33.924;18.406;2023-06-10T08:31:06;99657.32;;;19.84;61.68
76484;BME280;65318;-33.924;18.406;2023-06-10T08:33:32;99652.54;;;19.21;63.00
76484;BME280;65318;-33.924;18.406;2023-06-10T08:35:57;99657.31;;;18.71;63.52
76484;BME280;65318;-33.924;18.406;2023-06-10T08:38:23;99655.41;;;18.69;61.84
76484;BME280;65318;-33.924;18.406;2023-06-10T08:40:48;99648.37;;;19.19;62.12
76484;BME280;65318;-33.924;18.406;2023-06-10T08:43:21;99647.82;;;18.38;63.60
76484;BME280;65318;-33.924;18.406;2023-06-10T08:45:41;99639.89;;;18.86;61.25
76484;BME280;65318;-33.924;18.406;2023-06-10T08:48:06;99641.09;;;18.50;61.62
76484;BME280;65318;-33.924;18.406;2023-06-10T08:50:30;99631.65;;;18.65;61.48
76484;BME280;65318;-33.924;18.406;2023-06-10T08:52:58;99629.71;;;18.57;60.52
76484;BME280;65318;-33.924;18.406;2023-06-10T08:55:29;99622.80;;;19.78;57.77
76484;BME280;65318;-33.924;18.406;2023-06-10T08:57:47;99615.99;;;19.75;56.80
76484;BME280;65318;-33.924;18.406;2023-06-10T09:00:13;99612.90;;;18.86;57.91
76484;BME280;65318;-33.924;18.406;2023-06-10T09:02:38;99604.72;;;18.67;59.59
76484;BME280;65318;-33.924;18.406;2023-06-10T09:05:04;99597.42;;;18.50;60.05
76484;BME280;65318;-33.924;18.406;2023-06-10T09:07:30;99594.18;;;18.96;57.79
76484;BME280;65318;-33.924;18.406;2023-06-10T09:09:55;99595.74;;;18.97;58.65
76484;BME280;65318;-33.924;18.406;2023-06-10T09:12:20;99596.74;;;18.93;58.62
76484;BME280;65318;-33.924;18.406;2023-06-10T09:14:45;99595.03;;;20.21;55.26
76484;BME280;65318;-33.924;18.406;2023-06-10T09:17:11;99596.65;;;19.67;56.36
76484;BME280;65318;-33.924;18.406;2023-06-10T09:19:37;99598.63;;;18.49;58.52
76484;BME280;65318;-33.924;18.406;2023-06-10T09:22:01;99597.36;;;18.33;59.25
76484;BME280;65318;-33.924;18.406;2023-06-10T09:24:27;99594.76;;;18.90;58.62
76484;BME280;65318;-33.924;18.406;2023-06-10T09:27:02;99595.07;;;18.09;58.37
76484;BME280;65318;-33.924;18.406;2023-06-10T09:29:18;99591.80;;;19.06;56.72
76484;BME280;65318;-33.924;18.406;2023-06-10T09:31:44;99589.27;;;18.51;59.08
76484;BME280;65318;-33.924;18.406;2023-06-10T09:36:35;99577.54;;;19.38;57.25
76484;BME280;65318;-33.924;18.406;2023-06-10T09:39:00;99577.46;;;19.33;57.24
76484;BME280;65318;-33.924;18.406;2023-06-10T09:41:33;99571.90;;;19.65;57.38
76484;BME280;65318;-33.924;18.406;2023-06-10T09:43:51;99569.55;;;19.32;57.36
76484;BME280;65318;-33.924;18.406;2023-06-10T09:46:17;99564.26;;;19.69;57.38
76484;BME280;65318;-33.924;18.406;2023-06-10T09:48:45;99556.30;;;19.74;57.41
76484;BME280;65318;-33.924;18.406;2023-06-10T09:51:10;99557.65;;;19.68;57.67
76484;BME280;65318;-33.924;18.406;2023-06-10T09:53:34;99556.16;;;19.96;57.73
76484;BME280;65318;-33.924;18.406;2023-06-10T09:55:59;99553.15;;;19.68;58.05
76484;BME280;65318;-33.924;18.406;2023-06-10T09:58:33;99547.96;;;19.47;58.11
76484;BME280;65318;-33.924;18.406;2023-06-10T10:00:53;99544.16;;;19.50;58.13
76484;BME280;65318;-33.924;18.406;2023-06-10T10:03:22;99542.17;;;19.59;57.98
76484;BME280;65318;-33.924;18.406;2023-06-10T10:05:40;99538.84;;;19.52;58.15
76484;BME280;65318;-33.924;18.406;2023-06-10T10:08:06;99535.25;;;19.55;58.22
76484;BME280;65318;-33.924;18.406;2023-06-10T10:10:31;99529.55;;;19.76;58.16
76484;BME280;65318;-33.924;18.406;2023-06-10T10:12:57;99525.07;;;19.68;58.40
76484;BME280;65318;-33.924;18.406;2023-06-10T10:15:23;99522.41;;;19.47;58.46
76484;BME280;65318;-33.924;18.406;2023-06-10T10:17:53;99517.51;;;19.80;58.28
76484;BME280;65318;-33.924;18.406;2023-06-10T10:20:16;99513.59;;;20.15;58.06
76484;BME280;65318;-33.924;18.406;2023-06-10T10:22:40;99506.61;;;19.65;58.69
76484;BME280;65318;-33.924;18.406;2023-06-10T10:25:08;99495.69;;;19.50;58.53
76484;BME280;65318;-33.924;18.406;2023-06-10T10:27:35;99492.49;;;19.74;59.01
76484;BME280;65318;-33.924;18.406;2023-06-10T10:29:55;99493.32;;;19.78;58.97
76484;BME280;65318;-33.924;18.406;2023-06-10T10:32:26;99491.69;;;19.32;58.87
76484;BME280;65318;-33.924;18.406;2023-06-10T10:34:53;99489.64;;;19.66;58.81
76484;BME280;65318;-33.924;18.406;2023-06-10T10:37:11;99485.90;;;19.83;59.04
76484;BME280;65318;-33.924;18.406;2023-06-10T10:39:37;99474.98;;;19.45;59.32
76484;BME280;65318;-33.924;18.406;2023-06-10T10:42:03;99472.60;;;19.59;59.07
76484;BME280;65318;-33.924;18.406;2023-06-10T10:44:28;99473.51;;;19.62;58.90
76484;BME280;65318;-33.924;18.406;2023-06-10T10:46:53;99467.54;;;19.50;59.22
76484;BME280;65318;-33.924;18.406;2023-06-10T10:49:20;99467.62;;;19.50;59.21
76484;BME280;65318;-33.924;18.406;2023-06-10T10:51:55;99464.17;;;19.27;59.11
76484;BME280;65318;-33.924;18.406;2023-06-10T10:54:12;99459.08;;;19.72;58.16
76484;BME280;65318;-33.924;18.406;2023-06-10T10:56:35;99452.91;;;20.00;58.39
76484;BME280;65318;-33.924;18.406;2023-06-10T10:59:04;99451.33;;;19.71;58.41
76484;BME280;65318;-33.924;18.406;2023-06-10T11:03:52;99447.97;;;19.52;58.93
76484;BME280;65318;-33.924;18.406;2023-06-10T11:06:18;99445.39;;;19.52;58.93
76484;BME280;65318;-33.924;18.406;2023-06-10T11:08:49;99441.54;;;19.56;58.41
76484;BME280;65318;-33.924;18.406;2023-06-10T11:11:18;99438.41;;;19.46;58.13
76484;BME280;65318;-33.924;18.406;2023-06-10T11:13:34;99438.25;;;19.41;58.39
76484;BME280;65318;-33.924;18.406;2023-06-10T11:16:00;99438.38;;;19.61;58.55
76484;BME280;65318;-33.924;18.406;2023-06-10T11:18:26;99433.23;;;19.52;58.03
76484;BME280;65318;-33.924;18.406;2023-06-10T11:20:56;99432.02;;;19.84;58.03
76484;BME280;65318;-33.924;18.406;2023-06-10T11:23:30;99430.64;;;19.37;58.49
76484;BME280;65318;-33.924;18.406;2023-06-10T11:25:42;99434.57;;;19.57;56.12
76484;BME280;65318;-33.924;18.406;2023-06-10T11:30:35;99432.01;;;19.41;54.73
76484;BME280;65318;-33.924;18.406;2023-06-10T11:32:58;99426.71;;;18.69;55.98
76484;BME280;65318;-33.924;18.406;2023-06-10T11:35:24;99422.98;;;19.99;53.89
76484;BME280;65318;-33.924;18.406;2023-06-10T11:37:49;99423.95;;;19.28;53.82
76484;BME280;65318;-33.924;18.406;2023-06-10T11:40:14;99420.17;;;19.17;54.45
76484;BME280;65318;-33.924;18.406;2023-06-10T11:42:40;99412.73;;;19.14;55.84
76484;BME280;65318;-33.924;18.406;2023-06-10T11:45:08;99408.17;;;19.20;55.57
76484;BME280;65318;-33.924;18.406;2023-06-10T11:47:31;99410.39;;;19.92;54.44
76484;BME280;65318;-33.924;18.406;2023-06-10T11:49:57;99409.04;;;19.57;54.05
76484;BME280;65318;-33.924;18.406;2023-06-10T11:52:27;99399.84;;;19.69;53.92
76484;BME280;65318;-33.924;18.406;2023-06-10T11:54:53;99396.20;;;19.48;55.54
76484;BME280;65318;-33.924;18.406;2023-06-10T11:57:13;99389.99;;;19.65;55.07
76484;BME280;65318;-33.924;18.406;2023-06-10T11:59:38;99388.68;;;19.39;55.56
76484;BME280;65318;-33.924;18.406;2023-06-10T12:02:04;99384.16;;;18.84;56.67
76484;BME280;65318;-33.924;18.406;2023-06-10T12:04:29;99376.31;;;19.75;55.90
76484;BME280;65318;-33.924;18.406;2023-06-10T14:06:03;99297.41;;;13.11;100.00
76484;BME280;65318;-33.924;18.406;2023-06-10T14:08:28;99290.20;;;14.94;100.00
76484;BME280;65318;-33.924;18.406;2023-06-10T14:10:54;99286.06;;;16.47;90.37
76484;BME280;65318;-33.924;18.406;2023-06-10T14:13:19;99282.69;;;17.85;84.19
76484;BME280;65318;-33.924;18.406;2023-06-10T14:15:45;99276.34;;;18.39;80.59
76484;BME280;65318;-33.924;18.406;2023-06-10T14:18:10;99278.26;;;18.53;78.67
76484;BME280;65318;-33.924;18.406;2023-06-10T14:20:35;99263.66;;;19.04;77.09
76484;BME280;65318;-33.924;18.406;2023-06-10T14:23:01;99258.56;;;18.77;68.97
76484;BME280;65318;-33.924;18.406;2023-06-10T14:25:26;99258.59;;;18.89;68.88
76484;BME280;65318;-33.924;18.406;2023-06-10T14:27:52;99256.73;;;19.19;69.55
76484;BME280;65318;-33.924;18.406;2023-06-10T14:30:17;99255.76;;;19.17;69.51
76484;BME280;65318;-33.924;18.406;2023-06-10T14:32:43;99257.30;;;19.22;69.17
76484;BME280;65318;-33.924;18.406;2023-06-10T14:35:08;99253.49;;;19.26;69.17
76484;BME280;65318;-33.924;18.406;2023-06-10T14:37:33;99250.27;;;19.08;69.63
76484;BME280;65318;-33.924;18.406;2023-06-10T14:39:59;99250.48;;;19.26;69.03
76484;BME280;65318;-33.924;18.406;2023-06-10T14:42:24;99254.75;;;19.33;68.67